sensor_id;sensor_type;location;lat;lon;timestamp;P1;durP1;ratioP1;P2;durP2;ratioP2
29362;SDS011;16349;53.672;10.014;2023-04-03T00:00:49;5.03;;;1.30;;
29362;SDS011;16349;53.672;10.014;2023-04-03T00:03:16;3.73;;;1.10;;
29362;SDS011;16349;53.672;10.014;2023-04-03T00:05:43;2.00;;;0.83;;
29362;SDS011;16349;53.672;10.014;2023-04-03T00:08:12;4.00;;;1.27;;
29362;SDS011;16349;53.672;10.014;2023-04-03T00:10:39;5.57;;;1.20;;
29362;SDS011;16349;53.672;10.014;2023-04-03T00:13:06;3.37;;;1.10;;
29362;SDS011;16349;53.672;10.014;2023-04-03T00:15:34;7.63;;;1.40;;
29362;SDS011;16349;53.672;10.014;2023-04-03T00:18:03;3.33;;;1.30;;
29362;SDS011;16349;53.672;10.014;2023-04-03T00:20:30;4.63;;;1.30;;
29362;SDS011;16349;53.672;10.014;2023-04-03T00:22:57;1.77;;;0.80;;
29362;SDS011;16349;53.672;10.014;2023-04-03T00:25:27;3.60;;;1.03;;
29362;SDS011;16349;53.672;10.014;2023-04-03T00:27:54;3.73;;;1.27;;
29362;SDS011;16349;53.672;10.014;2023-04-03T00:30:22;2.43;;;0.87;;
29362;SDS011;16349;53.672;10.014;2023-04-03T00:32:49;3.10;;;1.07;;
29362;SDS011;16349;53.672;10.014;2023-04-03T00:35:18;3.50;;;1.20;;
29362;SDS011;16349;53.672;10.014;2023-04-03T00:37:46;5.80;;;1.30;;
29362;SDS011;16349;53.672;10.014;2023-04-03T00:40:14;4.53;;;1.13;;
29362;SDS011;16349;53.672;10.014;2023-04-03T00:42:43;1.47;;;0.93;;
29362;SDS011;16349;53.672;10.014;2023-04-03T00:45:26;1.83;;;1.20;;
29362;SDS011;16349;53.672;10.014;2023-04-03T00:47:56;1.93;;;0.90;;
29362;SDS011;16349;53.672;10.014;2023-04-03T00:50:26;1.47;;;0.77;;
29362;SDS011;16349;53.672;10.014;2023-04-03T00:52:53;4.13;;;1.23;;
29362;SDS011;16349;53.672;10.014;2023-04-03T00:55:21;4.90;;;1.00;;
29362;SDS011;16349;53.672;10.014;2023-04-03T00:57:50;3.63;;;1.40;;
29362;SDS011;16349;53.672;10.014;2023-04-03T01:00:19;4.50;;;1.57;;
29362;SDS011;16349;53.672;10.014;2023-04-03T01:02:47;5.00;;;1.40;;
29362;SDS011;16349;53.672;10.014;2023-04-03T01:05:15;2.57;;;1.03;;
29362;SDS011;16349;53.672;10.014;2023-04-03T01:07:43;1.87;;;1.37;;
29362;SDS011;16349;53.672;10.014;2023-04-03T01:10:33;7.13;;;1.07;;
29362;SDS011;16349;53.672;10.014;2023-04-03T01:13:02;1.67;;;0.90;;
29362;SDS011;16349;53.672;10.014;2023-04-03T01:15:45;1.90;;;0.87;;
29362;SDS011;16349;53.672;10.014;2023-04-03T01:18:13;2.47;;;1.30;;
29362;SDS011;16349;53.672;10.014;2023-04-03T01:23:49;2.27;;;1.27;;
29362;SDS011;16349;53.672;10.014;2023-04-03T01:26:25;5.53;;;1.43;;
29362;SDS011;16349;53.672;10.014;2023-04-03T01:28:54;2.40;;;1.47;;
29362;SDS011;16349;53.672;10.014;2023-04-03T01:31:23;3.43;;;1.10;;
29362;SDS011;16349;53.672;10.014;2023-04-03T01:33:55;2.60;;;1.00;;
29362;SDS011;16349;53.672;10.014;2023-04-03T01:36:24;3.90;;;1.10;;
29362;SDS011;16349;53.672;10.014;2023-04-03T01:38:53;3.27;;;1.50;;
29362;SDS011;16349;53.672;10.014;2023-04-03T01:41:22;2.53;;;1.20;;
29362;SDS011;16349;53.672;10.014;2023-04-03T01:43:51;4.47;;;1.47;;
29362;SDS011;16349;53.672;10.014;2023-04-03T01:46:18;3.07;;;1.20;;
29362;SDS011;16349;53.672;10.014;2023-04-03T01:48:46;3.00;;;1.53;;
29362;SDS011;16349;53.672;10.014;2023-04-03T01:51:14;2.97;;;1.30;;
29362;SDS011;16349;53.672;10.014;2023-04-03T01:53:41;4.47;;;1.50;;
29362;SDS011;16349;53.672;10.014;2023-04-03T01:56:08;4.10;;;1.33;;
29362;SDS011;16349;53.672;10.014;2023-04-03T01:58:35;3.17;;;1.60;;
29362;SDS011;16349;53.672;10.014;2023-04-03T02:01:02;3.80;;;1.07;;
29362;SDS011;16349;53.672;10.014;2023-04-03T02:03:29;3.33;;;1.27;;
29362;SDS011;16349;53.672;10.014;2023-04-03T02:05:57;5.07;;;1.30;;
29362;SDS011;16349;53.672;10.014;2023-04-03T02:08:26;2.30;;;1.20;;
29362;SDS011;16349;53.672;10.014;2023-04-03T02:10:53;5.83;;;1.40;;
29362;SDS011;16349;53.672;10.014;2023-04-03T02:13:20;2.30;;;1.30;;
29362;SDS011;16349;53.672;10.014;2023-04-03T02:15:48;2.40;;;1.07;;
29362;SDS011;16349;53.672;10.014;2023-04-03T02:18:15;4.43;;;1.50;;
29362;SDS011;16349;53.672;10.014;2023-04-03T02:20:42;2.87;;;1.17;;
29362;SDS011;16349;53.672;10.014;2023-04-03T02:23:10;4.13;;;1.50;;
29362;SDS011;16349;53.672;10.014;2023-04-03T02:25:38;5.37;;;1.60;;
29362;SDS011;16349;53.672;10.014;2023-04-03T02:28:05;5.23;;;1.50;;
29362;SDS011;16349;53.672;10.014;2023-04-03T02:30:32;6.17;;;1.50;;
29362;SDS011;16349;53.672;10.014;2023-04-03T02:32:59;3.27;;;1.60;;
29362;SDS011;16349;53.672;10.014;2023-04-03T02:35:26;5.87;;;1.77;;
29362;SDS011;16349;53.672;10.014;2023-04-03T02:37:55;2.07;;;1.70;;
29362;SDS011;16349;53.672;10.014;2023-04-03T02:40:23;3.30;;;1.50;;
29362;SDS011;16349;53.672;10.014;2023-04-03T02:42:51;2.00;;;1.13;;
29362;SDS011;16349;53.672;10.014;2023-04-03T02:45:19;5.93;;;1.30;;
29362;SDS011;16349;53.672;10.014;2023-04-03T02:47:48;5.47;;;1.67;;
29362;SDS011;16349;53.672;10.014;2023-04-03T02:50:15;2.33;;;1.30;;
29362;SDS011;16349;53.672;10.014;2023-04-03T02:52:42;5.30;;;1.93;;
29362;SDS011;16349;53.672;10.014;2023-04-03T02:55:09;4.43;;;1.63;;
29362;SDS011;16349;53.672;10.014;2023-04-03T02:57:41;2.67;;;1.60;;
29362;SDS011;16349;53.672;10.014;2023-04-03T03:00:10;3.37;;;1.20;;
29362;SDS011;16349;53.672;10.014;2023-04-03T03:02:38;3.80;;;2.27;;
29362;SDS011;16349;53.672;10.014;2023-04-03T03:05:05;4.37;;;1.60;;
29362;SDS011;16349;53.672;10.014;2023-04-03T03:07:33;3.33;;;1.43;;
29362;SDS011;16349;53.672;10.014;2023-04-03T03:10:01;6.10;;;1.60;;
29362;SDS011;16349;53.672;10.014;2023-04-03T03:12:28;3.10;;;1.53;;
29362;SDS011;16349;53.672;10.014;2023-04-03T03:14:55;5.80;;;2.07;;
29362;SDS011;16349;53.672;10.014;2023-04-03T03:17:45;3.03;;;1.20;;
29362;SDS011;16349;53.672;10.014;2023-04-03T03:20:12;5.77;;;1.63;;
29362;SDS011;16349;53.672;10.014;2023-04-03T03:22:40;3.90;;;1.33;;
29362;SDS011;16349;53.672;10.014;2023-04-03T03:25:07;3.63;;;1.80;;
29362;SDS011;16349;53.672;10.014;2023-04-03T03:27:35;1.70;;;1.40;;
29362;SDS011;16349;53.672;10.014;2023-04-03T03:30:03;3.97;;;1.50;;
29362;SDS011;16349;53.672;10.014;2023-04-03T03:32:31;2.00;;;1.27;;
29362;SDS011;16349;53.672;10.014;2023-04-03T03:34:59;6.60;;;1.50;;
29362;SDS011;16349;53.672;10.014;2023-04-03T03:37:26;5.53;;;1.60;;
29362;SDS011;16349;53.672;10.014;2023-04-03T03:39:53;5.13;;;1.80;;
29362;SDS011;16349;53.672;10.014;2023-04-03T03:42:20;3.07;;;1.10;;
29362;SDS011;16349;53.672;10.014;2023-04-03T03:44:48;5.10;;;1.47;;
29362;SDS011;16349;53.672;10.014;2023-04-03T03:47:18;4.43;;;1.27;;
29362;SDS011;16349;53.672;10.014;2023-04-03T03:49:45;5.77;;;2.00;;
29362;SDS011;16349;53.672;10.014;2023-04-03T03:52:14;7.20;;;1.73;;
29362;SDS011;16349;53.672;10.014;2023-04-03T03:54:42;4.07;;;1.90;;
29362;SDS011;16349;53.672;10.014;2023-04-03T03:57:09;3.93;;;1.53;;
29362;SDS011;16349;53.672;10.014;2023-04-03T03:59:37;4.53;;;1.50;;
29362;SDS011;16349;53.672;10.014;2023-04-03T04:02:06;5.50;;;1.80;;
29362;SDS011;16349;53.672;10.014;2023-04-03T04:04:33;4.90;;;2.07;;
29362;SDS011;16349;53.672;10.014;2023-04-03T04:07:00;3.13;;;1.90;;
29362;SDS011;16349;53.672;10.014;2023-04-03T04:09:30;3.97;;;1.50;;
29362;SDS011;16349;53.672;10.014;2023-04-03T04:12:19;3.40;;;1.23;;
29362;SDS011;16349;53.672;10.014;2023-04-03T04:14:48;2.37;;;1.23;;
29362;SDS011;16349;53.672;10.014;2023-04-03T04:17:15;17.17;;;6.63;;
29362;SDS011;16349;53.672;10.014;2023-04-03T04:19:43;3.17;;;1.90;;
29362;SDS011;16349;53.672;10.014;2023-04-03T04:22:31;3.17;;;1.63;;
29362;SDS011;16349;53.672;10.014;2023-04-03T04:25:00;4.77;;;1.50;;
29362;SDS011;16349;53.672;10.014;2023-04-03T04:27:27;5.27;;;1.80;;
29362;SDS011;16349;53.672;10.014;2023-04-03T04:29:55;5.73;;;1.87;;
29362;SDS011;16349;53.672;10.014;2023-04-03T04:32:22;5.00;;;1.50;;
29362;SDS011;16349;53.672;10.014;2023-04-03T04:34:49;3.47;;;1.00;;
29362;SDS011;16349;53.672;10.014;2023-04-03T04:37:17;6.17;;;1.60;;
29362;SDS011;16349;53.672;10.014;2023-04-03T04:39:45;4.00;;;1.73;;
29362;SDS011;16349;53.672;10.014;2023-04-03T04:42:14;2.00;;;1.50;;
29362;SDS011;16349;53.672;10.014;2023-04-03T04:44:40;3.63;;;1.60;;
29362;SDS011;16349;53.672;10.014;2023-04-03T04:47:07;5.73;;;1.40;;
29362;SDS011;16349;53.672;10.014;2023-04-03T04:49:34;6.90;;;2.23;;
29362;SDS011;16349;53.672;10.014;2023-04-03T04:52:02;5.33;;;1.80;;
29362;SDS011;16349;53.672;10.014;2023-04-03T04:54:30;5.77;;;1.50;;
29362;SDS011;16349;53.672;10.014;2023-04-03T04:56:57;6.40;;;2.20;;
29362;SDS011;16349;53.672;10.014;2023-04-03T04:59:27;6.57;;;2.13;;
29362;SDS011;16349;53.672;10.014;2023-04-03T05:01:56;5.47;;;2.00;;
29362;SDS011;16349;53.672;10.014;2023-04-03T05:04:24;11.37;;;2.57;;
29362;SDS011;16349;53.672;10.014;2023-04-03T05:06:57;2.83;;;1.80;;
29362;SDS011;16349;53.672;10.014;2023-04-03T05:09:27;5.47;;;1.73;;
29362;SDS011;16349;53.672;10.014;2023-04-03T05:11:54;7.77;;;1.73;;
29362;SDS011;16349;53.672;10.014;2023-04-03T05:14:26;3.93;;;1.80;;
29362;SDS011;16349;53.672;10.014;2023-04-03T05:16:58;9.10;;;2.40;;
29362;SDS011;16349;53.672;10.014;2023-04-03T05:19:28;6.63;;;2.77;;
29362;SDS011;16349;53.672;10.014;2023-04-03T05:21:56;3.77;;;2.20;;
29362;SDS011;16349;53.672;10.014;2023-04-03T05:24:24;3.63;;;1.90;;
29362;SDS011;16349;53.672;10.014;2023-04-03T05:26:52;4.60;;;1.90;;
29362;SDS011;16349;53.672;10.014;2023-04-03T05:29:20;3.33;;;1.80;;
29362;SDS011;16349;53.672;10.014;2023-04-03T05:31:50;2.57;;;1.70;;
29362;SDS011;16349;53.672;10.014;2023-04-03T05:34:17;4.37;;;1.80;;
29362;SDS011;16349;53.672;10.014;2023-04-03T05:36:47;1.83;;;1.50;;
29362;SDS011;16349;53.672;10.014;2023-04-03T05:39:15;9.47;;;1.93;;
29362;SDS011;16349;53.672;10.014;2023-04-03T05:41:43;7.93;;;2.23;;
29362;SDS011;16349;53.672;10.014;2023-04-03T05:44:10;4.90;;;1.70;;
29362;SDS011;16349;53.672;10.014;2023-04-03T05:46:41;6.23;;;1.90;;
29362;SDS011;16349;53.672;10.014;2023-04-03T05:49:10;4.20;;;1.80;;
29362;SDS011;16349;53.672;10.014;2023-04-03T05:51:37;4.37;;;1.83;;
29362;SDS011;16349;53.672;10.014;2023-04-03T05:54:26;3.73;;;2.20;;
29362;SDS011;16349;53.672;10.014;2023-04-03T05:57:06;2.40;;;1.93;;
29362;SDS011;16349;53.672;10.014;2023-04-03T05:59:33;4.83;;;2.20;;
29362;SDS011;16349;53.672;10.014;2023-04-03T06:02:00;6.80;;;2.23;;
29362;SDS011;16349;53.672;10.014;2023-04-03T06:04:29;3.83;;;2.30;;
29362;SDS011;16349;53.672;10.014;2023-04-03T06:06:56;11.23;;;2.20;;
29362;SDS011;16349;53.672;10.014;2023-04-03T06:09:26;6.53;;;2.40;;
29362;SDS011;16349;53.672;10.014;2023-04-03T06:11:55;5.40;;;2.00;;
29362;SDS011;16349;53.672;10.014;2023-04-03T06:14:23;5.07;;;2.43;;
29362;SDS011;16349;53.672;10.014;2023-04-03T06:16:51;6.47;;;2.63;;
29362;SDS011;16349;53.672;10.014;2023-04-03T06:19:18;6.50;;;2.57;;
29362;SDS011;16349;53.672;10.014;2023-04-03T06:21:50;10.77;;;2.47;;
29362;SDS011;16349;53.672;10.014;2023-04-03T06:24:18;5.67;;;2.40;;
29362;SDS011;16349;53.672;10.014;2023-04-03T06:26:47;3.00;;;2.17;;
29362;SDS011;16349;53.672;10.014;2023-04-03T06:29:16;5.53;;;2.33;;
29362;SDS011;16349;53.672;10.014;2023-04-03T06:31:43;9.23;;;1.90;;
29362;SDS011;16349;53.672;10.014;2023-04-03T06:34:11;3.67;;;1.60;;
29362;SDS011;16349;53.672;10.014;2023-04-03T06:36:38;3.93;;;1.53;;
29362;SDS011;16349;53.672;10.014;2023-04-03T06:39:08;4.90;;;1.67;;
29362;SDS011;16349;53.672;10.014;2023-04-03T06:41:39;5.60;;;1.90;;
29362;SDS011;16349;53.672;10.014;2023-04-03T06:44:05;4.23;;;1.60;;
29362;SDS011;16349;53.672;10.014;2023-04-03T06:46:36;4.73;;;1.37;;
29362;SDS011;16349;53.672;10.014;2023-04-03T06:49:04;5.80;;;1.70;;
29362;SDS011;16349;53.672;10.014;2023-04-03T06:51:33;4.30;;;1.47;;
29362;SDS011;16349;53.672;10.014;2023-04-03T06:54:00;7.10;;;1.50;;
29362;SDS011;16349;53.672;10.014;2023-04-03T06:56:31;6.13;;;1.40;;
29362;SDS011;16349;53.672;10.014;2023-04-03T06:58:59;2.97;;;1.70;;
29362;SDS011;16349;53.672;10.014;2023-04-03T07:01:47;1.80;;;1.00;;
29362;SDS011;16349;53.672;10.014;2023-04-03T07:04:15;3.30;;;1.17;;
29362;SDS011;16349;53.672;10.014;2023-04-03T07:06:42;1.63;;;1.00;;
29362;SDS011;16349;53.672;10.014;2023-04-03T07:09:09;3.50;;;1.60;;
29362;SDS011;16349;53.672;10.014;2023-04-03T07:11:41;6.13;;;2.33;;
29362;SDS011;16349;53.672;10.014;2023-04-03T07:14:08;3.70;;;1.47;;
29362;SDS011;16349;53.672;10.014;2023-04-03T07:16:35;3.97;;;0.80;;
29362;SDS011;16349;53.672;10.014;2023-04-03T07:19:01;2.03;;;1.10;;
29362;SDS011;16349;53.672;10.014;2023-04-03T07:21:30;2.47;;;1.30;;
29362;SDS011;16349;53.672;10.014;2023-04-03T07:23:56;3.73;;;0.97;;
29362;SDS011;16349;53.672;10.014;2023-04-03T07:26:49;3.27;;;1.50;;
29362;SDS011;16349;53.672;10.014;2023-04-03T07:29:17;2.20;;;0.87;;
29362;SDS011;16349;53.672;10.014;2023-04-03T07:31:45;1.83;;;0.60;;
29362;SDS011;16349;53.672;10.014;2023-04-03T07:34:12;0.90;;;0.63;;
29362;SDS011;16349;53.672;10.014;2023-04-03T07:36:38;3.50;;;0.97;;
29362;SDS011;16349;53.672;10.014;2023-04-03T07:39:06;4.33;;;1.00;;
29362;SDS011;16349;53.672;10.014;2023-04-03T07:41:33;2.23;;;0.90;;
29362;SDS011;16349;53.672;10.014;2023-04-03T07:44:20;4.27;;;1.17;;
29362;SDS011;16349;53.672;10.014;2023-04-03T07:46:49;1.07;;;0.73;;
29362;SDS011;16349;53.672;10.014;2023-04-03T07:49:15;1.33;;;0.70;;
29362;SDS011;16349;53.672;10.014;2023-04-03T07:51:43;1.87;;;0.80;;
29362;SDS011;16349;53.672;10.014;2023-04-03T07:54:31;4.20;;;1.07;;
29362;SDS011;16349;53.672;10.014;2023-04-03T07:56:59;1.90;;;0.87;;
29362;SDS011;16349;53.672;10.014;2023-04-03T07:59:28;3.63;;;0.53;;
29362;SDS011;16349;53.672;10.014;2023-04-03T08:01:57;3.93;;;0.97;;
29362;SDS011;16349;53.672;10.014;2023-04-03T08:04:24;3.17;;;0.77;;
29362;SDS011;16349;53.672;10.014;2023-04-03T08:06:51;3.07;;;0.57;;
29362;SDS011;16349;53.672;10.014;2023-04-03T08:09:18;3.30;;;0.60;;
29362;SDS011;16349;53.672;10.014;2023-04-03T08:11:46;5.17;;;0.70;;
29362;SDS011;16349;53.672;10.014;2023-04-03T08:14:13;2.30;;;0.80;;
29362;SDS011;16349;53.672;10.014;2023-04-03T08:16:44;1.00;;;0.70;;
29362;SDS011;16349;53.672;10.014;2023-04-03T08:19:12;2.17;;;0.60;;
29362;SDS011;16349;53.672;10.014;2023-04-03T08:21:41;5.60;;;1.10;;
29362;SDS011;16349;53.672;10.014;2023-04-03T08:24:07;0.97;;;0.50;;
29362;SDS011;16349;53.672;10.014;2023-04-03T08:26:35;2.27;;;0.57;;
29362;SDS011;16349;53.672;10.014;2023-04-03T08:29:04;1.17;;;0.80;;
29362;SDS011;16349;53.672;10.014;2023-04-03T08:31:50;3.23;;;0.83;;
29362;SDS011;16349;53.672;10.014;2023-04-03T08:34:18;1.70;;;0.80;;
29362;SDS011;16349;53.672;10.014;2023-04-03T08:36:46;2.57;;;0.67;;
29362;SDS011;16349;53.672;10.014;2023-04-03T08:39:13;4.17;;;0.67;;
29362;SDS011;16349;53.672;10.014;2023-04-03T08:41:42;3.70;;;1.00;;
29362;SDS011;16349;53.672;10.014;2023-04-03T08:44:14;3.23;;;1.07;;
29362;SDS011;16349;53.672;10.014;2023-04-03T08:47:13;2.40;;;0.60;;
29362;SDS011;16349;53.672;10.014;2023-04-03T08:49:51;2.07;;;0.83;;
29362;SDS011;16349;53.672;10.014;2023-04-03T08:52:21;1.47;;;0.63;;
29362;SDS011;16349;53.672;10.014;2023-04-03T08:54:56;3.23;;;1.13;;
29362;SDS011;16349;53.672;10.014;2023-04-03T08:57:28;2.07;;;0.70;;
29362;SDS011;16349;53.672;10.014;2023-04-03T08:59:57;2.33;;;0.53;;
29362;SDS011;16349;53.672;10.014;2023-04-03T09:02:31;1.60;;;0.73;;
29362;SDS011;16349;53.672;10.014;2023-04-03T09:05:01;1.30;;;0.57;;
29362;SDS011;16349;53.672;10.014;2023-04-03T09:07:33;1.50;;;0.70;;
29362;SDS011;16349;53.672;10.014;2023-04-03T09:10:06;2.30;;;0.63;;
29362;SDS011;16349;53.672;10.014;2023-04-03T09:12:37;2.27;;;0.40;;
29362;SDS011;16349;53.672;10.014;2023-04-03T09:15:08;2.10;;;0.53;;
29362;SDS011;16349;53.672;10.014;2023-04-03T09:17:45;1.20;;;0.50;;
29362;SDS011;16349;53.672;10.014;2023-04-03T09:20:19;1.73;;;0.67;;
29362;SDS011;16349;53.672;10.014;2023-04-03T09:22:51;1.83;;;0.50;;
29362;SDS011;16349;53.672;10.014;2023-04-03T09:25:20;3.10;;;0.57;;
29362;SDS011;16349;53.672;10.014;2023-04-03T09:27:50;2.80;;;1.20;;
29362;SDS011;16349;53.672;10.014;2023-04-03T09:30:18;1.17;;;0.50;;
29362;SDS011;16349;53.672;10.014;2023-04-03T09:32:49;1.73;;;0.70;;
29362;SDS011;16349;53.672;10.014;2023-04-03T09:35:19;1.70;;;0.60;;
29362;SDS011;16349;53.672;10.014;2023-04-03T09:37:49;1.03;;;0.50;;
29362;SDS011;16349;53.672;10.014;2023-04-03T09:40:30;3.50;;;0.53;;
29362;SDS011;16349;53.672;10.014;2023-04-03T09:45:49;1.57;;;0.50;;
29362;SDS011;16349;53.672;10.014;2023-04-03T09:48:19;1.23;;;0.60;;
29362;SDS011;16349;53.672;10.014;2023-04-03T09:50:53;2.73;;;0.50;;
29362;SDS011;16349;53.672;10.014;2023-04-03T09:53:27;0.77;;;0.47;;
29362;SDS011;16349;53.672;10.014;2023-04-03T09:55:56;0.27;;;0.27;;
29362;SDS011;16349;53.672;10.014;2023-04-03T09:58:25;1.20;;;0.60;;
29362;SDS011;16349;53.672;10.014;2023-04-03T10:00:54;1.17;;;0.43;;
29362;SDS011;16349;53.672;10.014;2023-04-03T10:03:25;2.77;;;0.70;;
29362;SDS011;16349;53.672;10.014;2023-04-03T10:06:21;0.67;;;0.40;;
29362;SDS011;16349;53.672;10.014;2023-04-03T10:09:15;0.80;;;0.40;;
29362;SDS011;16349;53.672;10.014;2023-04-03T10:11:58;1.23;;;0.60;;
29362;SDS011;16349;53.672;10.014;2023-04-03T10:14:27;1.50;;;0.80;;
29362;SDS011;16349;53.672;10.014;2023-04-03T10:16:56;1.87;;;0.60;;
29362;SDS011;16349;53.672;10.014;2023-04-03T10:19:36;1.87;;;0.40;;
29362;SDS011;16349;53.672;10.014;2023-04-03T10:22:11;1.53;;;0.50;;
29362;SDS011;16349;53.672;10.014;2023-04-03T10:24:48;1.33;;;0.60;;
29362;SDS011;16349;53.672;10.014;2023-04-03T10:27:27;4.53;;;0.77;;
29362;SDS011;16349;53.672;10.014;2023-04-03T10:30:04;0.63;;;0.60;;
29362;SDS011;16349;53.672;10.014;2023-04-03T10:32:45;2.30;;;0.70;;
29362;SDS011;16349;53.672;10.014;2023-04-03T10:35:24;1.77;;;0.53;;
29362;SDS011;16349;53.672;10.014;2023-04-03T10:38:03;2.27;;;0.60;;
29362;SDS011;16349;53.672;10.014;2023-04-03T10:40:37;1.40;;;0.60;;
29362;SDS011;16349;53.672;10.014;2023-04-03T10:43:14;1.00;;;0.80;;
29362;SDS011;16349;53.672;10.014;2023-04-03T10:45:56;1.33;;;0.60;;
29362;SDS011;16349;53.672;10.014;2023-04-03T10:48:33;2.10;;;0.70;;
29362;SDS011;16349;53.672;10.014;2023-04-03T10:51:12;2.80;;;0.80;;
29362;SDS011;16349;53.672;10.014;2023-04-03T10:53:50;2.53;;;0.60;;
29362;SDS011;16349;53.672;10.014;2023-04-03T10:56:24;1.47;;;0.70;;
29362;SDS011;16349;53.672;10.014;2023-04-03T10:58:58;2.37;;;0.80;;
29362;SDS011;16349;53.672;10.014;2023-04-03T11:01:34;2.87;;;0.80;;
29362;SDS011;16349;53.672;10.014;2023-04-03T11:04:04;2.07;;;0.60;;
29362;SDS011;16349;53.672;10.014;2023-04-03T11:06:36;1.43;;;0.67;;
29362;SDS011;16349;53.672;10.014;2023-04-03T11:09:10;2.03;;;0.60;;
29362;SDS011;16349;53.672;10.014;2023-04-03T11:11:45;1.57;;;0.60;;
29362;SDS011;16349;53.672;10.014;2023-04-03T11:14:14;1.07;;;0.47;;
29362;SDS011;16349;53.672;10.014;2023-04-03T11:16:49;3.60;;;0.80;;
29362;SDS011;16349;53.672;10.014;2023-04-03T11:19:25;3.50;;;0.77;;
29362;SDS011;16349;53.672;10.014;2023-04-03T11:22:03;1.13;;;0.50;;
29362;SDS011;16349;53.672;10.014;2023-04-03T11:24:37;2.20;;;0.60;;
29362;SDS011;16349;53.672;10.014;2023-04-03T11:27:09;0.70;;;0.43;;
29362;SDS011;16349;53.672;10.014;2023-04-03T11:29:43;1.13;;;0.50;;
29362;SDS011;16349;53.672;10.014;2023-04-03T11:32:17;4.63;;;0.90;;
29362;SDS011;16349;53.672;10.014;2023-04-03T11:34:56;1.97;;;1.00;;
29362;SDS011;16349;53.672;10.014;2023-04-03T11:37:28;3.47;;;0.70;;
29362;SDS011;16349;53.672;10.014;2023-04-03T11:40:00;1.73;;;0.50;;
29362;SDS011;16349;53.672;10.014;2023-04-03T11:42:31;1.33;;;0.80;;
29362;SDS011;16349;53.672;10.014;2023-04-03T11:48:04;3.03;;;0.67;;
29362;SDS011;16349;53.672;10.014;2023-04-03T11:50:42;1.20;;;0.60;;
29362;SDS011;16349;53.672;10.014;2023-04-03T11:53:28;2.63;;;0.53;;
29362;SDS011;16349;53.672;10.014;2023-04-03T11:56:00;0.97;;;0.70;;
29362;SDS011;16349;53.672;10.014;2023-04-03T12:01:48;1.53;;;0.70;;
29362;SDS011;16349;53.672;10.014;2023-04-03T12:04:16;1.13;;;0.50;;
29362;SDS011;16349;53.672;10.014;2023-04-03T12:12:35;1.77;;;0.70;;
29362;SDS011;16349;53.672;10.014;2023-04-03T12:15:20;1.80;;;0.80;;
29362;SDS011;16349;53.672;10.014;2023-04-03T12:17:49;2.40;;;0.70;;
29362;SDS011;16349;53.672;10.014;2023-04-03T12:23:23;1.43;;;0.60;;
29362;SDS011;16349;53.672;10.014;2023-04-03T12:25:52;1.37;;;0.57;;
29362;SDS011;16349;53.672;10.014;2023-04-03T12:28:34;3.00;;;0.60;;
29362;SDS011;16349;53.672;10.014;2023-04-03T12:31:05;5.07;;;0.77;;
29362;SDS011;16349;53.672;10.014;2023-04-03T12:33:38;2.40;;;0.70;;
29362;SDS011;16349;53.672;10.014;2023-04-03T12:36:23;2.07;;;0.77;;
29362;SDS011;16349;53.672;10.014;2023-04-03T12:39:09;2.63;;;0.80;;
29362;SDS011;16349;53.672;10.014;2023-04-03T12:41:45;4.43;;;0.90;;
29362;SDS011;16349;53.672;10.014;2023-04-03T12:47:20;1.00;;;0.73;;
29362;SDS011;16349;53.672;10.014;2023-04-03T12:49:50;0.50;;;0.40;;
29362;SDS011;16349;53.672;10.014;2023-04-03T12:52:19;2.03;;;0.70;;
29362;SDS011;16349;53.672;10.014;2023-04-03T12:54:52;5.37;;;1.23;;
29362;SDS011;16349;53.672;10.014;2023-04-03T12:57:21;4.27;;;0.83;;
29362;SDS011;16349;53.672;10.014;2023-04-03T12:59:51;2.83;;;0.70;;
29362;SDS011;16349;53.672;10.014;2023-04-03T13:02:24;1.23;;;0.50;;
29362;SDS011;16349;53.672;10.014;2023-04-03T13:04:53;2.87;;;0.70;;
29362;SDS011;16349;53.672;10.014;2023-04-03T13:07:24;1.53;;;0.53;;
29362;SDS011;16349;53.672;10.014;2023-04-03T13:09:59;1.83;;;0.60;;
29362;SDS011;16349;53.672;10.014;2023-04-03T13:12:29;3.07;;;0.70;;
29362;SDS011;16349;53.672;10.014;2023-04-03T13:14:57;1.43;;;0.50;;
29362;SDS011;16349;53.672;10.014;2023-04-03T13:17:27;1.43;;;0.60;;
29362;SDS011;16349;53.672;10.014;2023-04-03T13:19:54;1.73;;;1.23;;
29362;SDS011;16349;53.672;10.014;2023-04-03T13:22:24;1.80;;;0.60;;
29362;SDS011;16349;53.672;10.014;2023-04-03T13:24:54;2.40;;;0.70;;
29362;SDS011;16349;53.672;10.014;2023-04-03T13:27:24;2.83;;;1.23;;
29362;SDS011;16349;53.672;10.014;2023-04-03T13:29:52;1.80;;;0.67;;
29362;SDS011;16349;53.672;10.014;2023-04-03T13:32:21;4.30;;;0.83;;
29362;SDS011;16349;53.672;10.014;2023-04-03T13:34:51;1.87;;;0.63;;
29362;SDS011;16349;53.672;10.014;2023-04-03T13:37:20;3.53;;;1.13;;
29362;SDS011;16349;53.672;10.014;2023-04-03T13:39:56;1.10;;;0.70;;
29362;SDS011;16349;53.672;10.014;2023-04-03T13:42:26;1.80;;;0.60;;
29362;SDS011;16349;53.672;10.014;2023-04-03T13:47:44;1.10;;;0.60;;
29362;SDS011;16349;53.672;10.014;2023-04-03T13:50:15;1.63;;;0.60;;
29362;SDS011;16349;53.672;10.014;2023-04-03T13:52:44;2.17;;;0.70;;
29362;SDS011;16349;53.672;10.014;2023-04-03T13:55:18;1.50;;;0.70;;
29362;SDS011;16349;53.672;10.014;2023-04-03T13:57:49;3.03;;;0.80;;
29362;SDS011;16349;53.672;10.014;2023-04-03T14:00:28;0.77;;;0.50;;
29362;SDS011;16349;53.672;10.014;2023-04-03T14:02:59;2.07;;;0.80;;
29362;SDS011;16349;53.672;10.014;2023-04-03T14:05:28;2.37;;;0.70;;
29362;SDS011;16349;53.672;10.014;2023-04-03T14:07:54;1.60;;;0.73;;
29362;SDS011;16349;53.672;10.014;2023-04-03T14:10:22;1.77;;;0.80;;
29362;SDS011;16349;53.672;10.014;2023-04-03T14:12:48;1.87;;;1.10;;
29362;SDS011;16349;53.672;10.014;2023-04-03T14:15:18;3.60;;;1.17;;
29362;SDS011;16349;53.672;10.014;2023-04-03T14:17:49;2.17;;;0.63;;
29362;SDS011;16349;53.672;10.014;2023-04-03T14:20:18;1.90;;;0.93;;
29362;SDS011;16349;53.672;10.014;2023-04-03T14:22:48;4.03;;;0.80;;
29362;SDS011;16349;53.672;10.014;2023-04-03T14:25:16;1.33;;;0.93;;
29362;SDS011;16349;53.672;10.014;2023-04-03T14:27:44;1.97;;;0.60;;
29362;SDS011;16349;53.672;10.014;2023-04-03T14:30:15;1.47;;;1.00;;
29362;SDS011;16349;53.672;10.014;2023-04-03T14:32:43;1.63;;;0.70;;
29362;SDS011;16349;53.672;10.014;2023-04-03T14:35:11;1.07;;;0.70;;
29362;SDS011;16349;53.672;10.014;2023-04-03T14:37:39;1.47;;;0.80;;
29362;SDS011;16349;53.672;10.014;2023-04-03T14:40:08;2.70;;;0.90;;
29362;SDS011;16349;53.672;10.014;2023-04-03T14:42:39;1.17;;;1.00;;
29362;SDS011;16349;53.672;10.014;2023-04-03T14:45:06;3.47;;;0.80;;
29362;SDS011;16349;53.672;10.014;2023-04-03T14:47:35;2.30;;;0.80;;
29362;SDS011;16349;53.672;10.014;2023-04-03T14:50:07;1.77;;;0.90;;
29362;SDS011;16349;53.672;10.014;2023-04-03T14:52:39;1.70;;;0.83;;
29362;SDS011;16349;53.672;10.014;2023-04-03T14:55:08;1.53;;;0.70;;
29362;SDS011;16349;53.672;10.014;2023-04-03T14:57:38;2.70;;;0.80;;
29362;SDS011;16349;53.672;10.014;2023-04-03T15:00:06;1.50;;;0.77;;
29362;SDS011;16349;53.672;10.014;2023-04-03T15:02:38;2.50;;;0.83;;
29362;SDS011;16349;53.672;10.014;2023-04-03T15:05:07;2.10;;;0.73;;
29362;SDS011;16349;53.672;10.014;2023-04-03T15:07:36;1.90;;;0.80;;
29362;SDS011;16349;53.672;10.014;2023-04-03T15:10:18;3.87;;;1.20;;
29362;SDS011;16349;53.672;10.014;2023-04-03T15:12:46;2.50;;;0.90;;
29362;SDS011;16349;53.672;10.014;2023-04-03T15:15:14;3.33;;;0.90;;
29362;SDS011;16349;53.672;10.014;2023-04-03T15:17:42;3.67;;;0.90;;
29362;SDS011;16349;53.672;10.014;2023-04-03T15:20:11;2.37;;;1.00;;